Terminal Aerodrome Forecast
Issued by NWS

Home | Current Version | Previous Version | Text Only | Print | Product List | Glossary On
Versions: 1 2 3 4 5 6 7 8 9 10 11 12 13 14 15 16 17 18 19 20 21 22 23 24 25 26 27
000
FTUS42 KMFL 212110 AAA
TAFTMB
TAF AMD
KTMB 212110Z 2121/2218 14010KT P6SM SCT035 BKN050
     FM220100 14005KT P6SM BKN040 BKN120 BKN250
     FM221000 15005KT P6SM VCSH SCT030 BKN050 OVC100
     FM221400 16012KT 5SM SHRA BKN030 OVC050=

USA.gov is the U.S. government's official web portal to all federal, state and local government web resources and services.